createdAt,value
2019-06-10T00:00:13.446Z,21.60
2019-06-10T00:02:42.289Z,21.60
2019-06-10T00:05:14.578Z,21.50
2019-06-10T00:07:46.370Z,21.50
2019-06-10T00:10:21.328Z,21.50
2019-06-10T00:12:55.186Z,21.50
2019-06-10T00:15:25.499Z,21.50
2019-06-10T00:18:18.724Z,21.50
2019-06-10T00:20:30.680Z,21.40
2019-06-10T00:23:04.036Z,21.40
2019-06-10T00:25:36.158Z,21.40
2019-06-10T00:28:09.525Z,21.40
2019-06-10T00:30:41.683Z,21.40
2019-06-10T00:33:13.530Z,21.40
2019-06-10T00:35:45.230Z,21.30
2019-06-10T00:38:21.216Z,21.30
2019-06-10T00:40:52.076Z,21.20
2019-06-10T00:43:23.814Z,21.20
2019-06-10T00:45:55.621Z,21.10
2019-06-10T00:48:29.342Z,21.10
2019-06-10T00:51:02.547Z,21.10
2019-06-10T00:53:34.306Z,21.10
2019-06-10T00:56:07.310Z,21.00
2019-06-10T00:58:40.855Z,21.00
2019-06-10T01:01:14.601Z,20.90
2019-06-10T01:03:46.006Z,20.90
2019-06-10T01:06:17.708Z,20.90
2019-06-10T01:08:51.294Z,20.80
2019-06-10T01:11:26.918Z,20.80
2019-06-10T01:13:56.319Z,20.80
2019-06-10T01:16:27.999Z,20.80
2019-06-10T01:19:01.462Z,20.70
2019-06-10T01:21:33.261Z,20.70
2019-06-10T01:24:05.103Z,20.70
2019-06-10T01:26:36.824Z,20.70
2019-06-10T01:29:09.502Z,20.70
2019-06-10T01:31:42.110Z,20.70
2019-06-10T01:34:15.050Z,20.70
2019-06-10T01:36:46.993Z,20.70
2019-06-10T01:39:18.676Z,20.60
2019-06-10T01:41:51.182Z,20.60
2019-06-10T01:44:23.138Z,20.60
2019-06-10T01:46:54.844Z,20.60
2019-06-10T01:49:26.505Z,20.60
2019-06-10T01:51:58.185Z,20.60
2019-06-10T01:54:31.685Z,20.50
2019-06-10T01:57:05.035Z,20.50
2019-06-10T01:59:36.782Z,20.50
2019-06-10T02:02:16.139Z,20.50
2019-06-10T02:04:47.252Z,20.50
2019-06-10T02:07:22.690Z,20.50
2019-06-10T02:09:52.365Z,20.50
2019-06-10T02:12:25.049Z,20.40
2019-06-10T02:14:56.754Z,20.40
2019-06-10T02:17:28.430Z,20.40
2019-06-10T02:20:01.114Z,20.40
2019-06-10T02:22:33.049Z,20.30
2019-06-10T02:25:05.191Z,20.30
2019-06-10T02:27:36.888Z,20.30
2019-06-10T02:30:21.726Z,20.30
2019-06-10T02:32:42.708Z,20.30
2019-06-10T02:35:26.169Z,20.20
2019-06-10T02:37:48.118Z,20.20
2019-06-10T02:40:31.876Z,20.20
2019-06-10T02:42:58.309Z,20.10
2019-06-10T02:45:35.213Z,20.10
2019-06-10T02:48:04.327Z,20.10
2019-06-10T02:51:04.018Z,20.00
2019-06-10T02:53:38.265Z,20.00
2019-06-10T02:56:12.595Z,19.90
2019-06-10T02:58:45.179Z,19.90
2019-06-10T03:01:19.369Z,19.80
2019-06-10T03:03:53.954Z,19.80
2019-06-10T03:06:31.866Z,19.80
2019-06-10T03:08:57.127Z,19.80
2019-06-10T03:11:33.442Z,19.70
2019-06-10T03:14:02.701Z,19.70
2019-06-10T03:16:42.959Z,19.70
2019-06-10T03:19:15.786Z,19.70
2019-06-10T03:21:47.497Z,19.70
2019-06-10T03:24:19.202Z,19.70
2019-06-10T03:26:52.174Z,19.70
2019-06-10T03:29:26.337Z,19.70
2019-06-10T03:31:57.438Z,19.70
2019-06-10T03:34:36.038Z,19.70
2019-06-10T03:37:02.589Z,19.80
2019-06-10T03:39:34.305Z,19.80
2019-06-10T03:42:06.126Z,19.80
2019-06-10T03:44:37.872Z,19.80
2019-06-10T03:47:12.035Z,19.80
2019-06-10T03:49:51.954Z,19.80
2019-06-10T03:52:17.312Z,19.80
2019-06-10T03:54:49.039Z,19.80
2019-06-10T03:57:23.762Z,19.80
2019-06-10T03:59:54.187Z,19.80
2019-06-10T04:02:27.207Z,19.90
2019-06-10T04:04:59.236Z,19.90
2019-06-10T04:07:33.678Z,19.90
2019-06-10T04:10:04.650Z,20.00
2019-06-10T04:12:36.298Z,20.00
2019-06-10T04:15:08.285Z,20.00
2019-06-10T04:17:42.593Z,20.00
2019-06-10T04:20:15.614Z,20.00
2019-06-10T04:22:47.972Z,20.00
2019-06-10T04:25:19.903Z,20.00
2019-06-10T04:27:52.460Z,20.00
2019-06-10T04:30:26.538Z,20.10
2019-06-10T04:32:59.255Z,20.10
2019-06-10T04:35:30.894Z,20.10
2019-06-10T04:38:02.662Z,20.10
2019-06-10T04:40:34.330Z,20.10
2019-06-10T04:43:05.988Z,20.10
2019-06-10T04:45:37.659Z,20.10
2019-06-10T04:48:09.309Z,20.10
2019-06-10T04:50:45.461Z,20.20
2019-06-10T04:53:14.325Z,20.10
2019-06-10T04:55:45.999Z,20.10
2019-06-10T04:58:19.230Z,20.10
2019-06-10T05:00:52.477Z,20.10
2019-06-10T05:03:26.488Z,20.20
2019-06-10T05:05:57.467Z,20.20
2019-06-10T05:08:29.614Z,20.20
2019-06-10T05:11:03.617Z,20.20
2019-06-10T05:13:36.036Z,20.20
2019-06-10T05:16:07.843Z,20.20
2019-06-10T05:18:39.492Z,20.20
2019-06-10T05:21:13.071Z,20.20
2019-06-10T05:23:44.559Z,20.20
2019-06-10T05:26:20.027Z,20.30
2019-06-10T05:28:52.642Z,20.30
2019-06-10T05:31:28.222Z,20.30
2019-06-10T05:33:57.883Z,20.30
2019-06-10T05:36:31.070Z,20.40
2019-06-10T05:39:02.992Z,20.40
2019-06-10T05:41:35.248Z,20.40
2019-06-10T05:44:07.050Z,20.40
2019-06-10T05:46:38.701Z,20.50
2019-06-10T05:49:14.231Z,20.50
2019-06-10T05:51:47.464Z,20.50
2019-06-10T05:54:19.159Z,20.60
2019-06-10T05:56:52.194Z,20.60
2019-06-10T05:59:24.641Z,20.60
2019-06-10T06:01:57.367Z,20.70
2019-06-10T06:04:30.577Z,20.70
2019-06-10T06:07:02.539Z,20.70
2019-06-10T06:09:35.318Z,20.70
2019-06-10T06:12:07.294Z,20.80
2019-06-10T06:14:38.987Z,20.90
2019-06-10T06:17:12.725Z,20.90
2019-06-10T06:19:44.082Z,20.90
2019-06-10T06:22:17.605Z,20.90
2019-06-10T06:24:49.283Z,20.90
2019-06-10T06:27:22.566Z,21.00
2019-06-10T06:29:54.304Z,21.00
2019-06-10T06:32:26.254Z,21.00
2019-06-10T06:34:57.934Z,21.00
2019-06-10T06:37:36.002Z,21.10
2019-06-10T06:40:06.810Z,21.10
2019-06-10T06:42:38.519Z,21.10
2019-06-10T06:45:12.179Z,21.10
2019-06-10T06:47:43.948Z,21.20
2019-06-10T06:50:16.808Z,21.20
2019-06-10T06:53:18.863Z,21.30
2019-06-10T06:55:23.357Z,21.30
2019-06-10T06:57:55.345Z,21.40
2019-06-10T07:00:53.004Z,21.50
2019-06-10T07:03:09.023Z,21.60
2019-06-10T07:05:43.385Z,21.60
2019-06-10T07:08:17.096Z,21.70
2019-06-10T07:10:49.359Z,21.70
2019-06-10T07:13:22.198Z,21.70
2019-06-10T07:15:54.033Z,21.70
2019-06-10T07:18:25.725Z,21.80
2019-06-10T07:20:57.376Z,21.80
2019-06-10T07:23:29.078Z,21.80
2019-06-10T07:26:02.292Z,21.90
2019-06-10T07:28:37.439Z,21.90
2019-06-10T07:31:22.777Z,21.90
2019-06-10T07:33:45.764Z,22.00
2019-06-10T07:36:14.740Z,22.00
2019-06-10T07:38:49.085Z,22.20
2019-06-10T07:41:19.964Z,22.20
2019-06-10T07:43:53.148Z,22.30
2019-06-10T07:46:25.002Z,22.30
2019-06-10T07:48:56.832Z,22.40
2019-06-10T07:51:28.604Z,22.50
2019-06-10T07:54:02.993Z,22.50
2019-06-10T07:56:40.317Z,22.60
2019-06-10T07:59:08.676Z,22.70
2019-06-10T08:01:48.787Z,22.70
2019-06-10T08:04:15.000Z,22.70
2019-06-10T08:06:49.794Z,22.70
2019-06-10T08:09:22.632Z,22.80
2019-06-10T08:11:53.639Z,22.90
2019-06-10T08:14:25.316Z,22.90
2019-06-10T08:16:57.024Z,23.00
2019-06-10T08:19:34.874Z,23.10
2019-06-10T08:22:03.048Z,23.10
2019-06-10T08:24:37.351Z,23.10
2019-06-10T08:27:09.186Z,23.20
2019-06-10T08:29:44.403Z,23.30
2019-06-10T08:32:14.405Z,23.40
2019-06-10T08:34:47.968Z,23.50
2019-06-10T08:37:19.608Z,23.50
2019-06-10T08:39:53.030Z,23.60
2019-06-10T08:42:24.917Z,23.70
2019-06-10T08:45:03.452Z,23.70
2019-06-10T08:47:37.062Z,23.70
2019-06-10T08:50:09.805Z,23.70
2019-06-10T08:53:01.475Z,23.70
2019-06-10T08:55:16.839Z,23.70
2019-06-10T08:57:51.053Z,23.80
2019-06-10T09:00:25.522Z,23.80
2019-06-10T09:02:56.565Z,23.90
2019-06-10T09:05:28.294Z,24.00
2019-06-10T09:08:02.576Z,24.00
2019-06-10T09:10:33.991Z,24.00
2019-06-10T09:13:05.945Z,24.10
2019-06-10T09:15:39.227Z,24.20
2019-06-10T09:18:13.959Z,24.20
2019-06-10T09:20:47.510Z,24.40
2019-06-10T09:23:22.438Z,24.40
2019-06-10T09:25:54.454Z,24.40
2019-06-10T09:28:27.160Z,24.50
2019-06-10T09:30:59.916Z,24.60
2019-06-10T09:33:33.059Z,24.70
2019-06-10T09:36:05.296Z,24.80
2019-06-10T09:38:37.043Z,24.90
2019-06-10T09:41:14.168Z,25.00
2019-06-10T09:43:50.133Z,25.10
2019-06-10T09:46:23.292Z,25.20
2019-06-10T09:48:58.010Z,25.40
2019-06-10T09:51:32.328Z,25.50
2019-06-10T09:54:06.560Z,25.60
2019-06-10T09:56:38.645Z,25.80
2019-06-10T09:59:14.605Z,25.90
2019-06-10T10:01:50.623Z,26.00
2019-06-10T10:04:22.865Z,26.20
2019-06-10T10:06:57.337Z,26.40
2019-06-10T10:09:36.770Z,26.60
2019-06-10T10:12:05.598Z,26.80
2019-06-10T10:14:37.853Z,27.00
2019-06-10T10:17:12.702Z,27.00
2019-06-10T10:19:46.855Z,27.20
2019-06-10T10:22:17.011Z,27.30
2019-06-10T10:24:52.057Z,27.50
2019-06-10T10:27:24.527Z,27.70
2019-06-10T10:29:57.424Z,27.90
2019-06-10T10:32:29.835Z,28.20
2019-06-10T10:35:03.679Z,28.40
2019-06-10T10:37:36.265Z,28.70
2019-06-10T10:40:09.448Z,28.90
2019-06-10T10:42:48.141Z,29.10
2019-06-10T10:45:17.419Z,29.30
2019-06-10T10:47:51.829Z,29.50
2019-06-10T10:50:23.967Z,29.60
2019-06-10T10:52:56.308Z,29.70
2019-06-10T10:55:28.566Z,29.80
2019-06-10T10:58:03.017Z,29.80
2019-06-10T11:00:49.268Z,29.80
2019-06-10T11:03:19.723Z,29.90
2019-06-10T11:05:57.864Z,30.50
2019-06-10T11:08:26.092Z,30.10
2019-06-10T11:11:05.203Z,30.10
2019-06-10T11:13:38.835Z,30.20
2019-06-10T11:16:11.186Z,30.20
2019-06-10T11:18:43.680Z,30.30
2019-06-10T11:21:16.056Z,30.40
2019-06-10T11:23:50.035Z,30.50
2019-06-10T11:26:26.956Z,30.60
2019-06-10T11:29:03.007Z,30.70
2019-06-10T11:31:36.573Z,30.80
2019-06-10T11:34:08.828Z,31.00
2019-06-10T11:36:42.364Z,31.20
2019-06-10T11:39:16.204Z,31.30
2019-06-10T11:41:48.435Z,31.50
2019-06-10T11:44:22.459Z,31.70
2019-06-10T11:46:59.241Z,32.00
2019-06-10T11:49:28.920Z,32.20
2019-06-10T11:52:03.221Z,32.40
2019-06-10T11:54:50.812Z,32.50
2019-06-10T11:57:12.537Z,32.50
2019-06-10T11:59:44.621Z,32.50
2019-06-10T12:02:16.970Z,32.40
2019-06-10T12:04:51.100Z,32.40
2019-06-10T12:07:24.583Z,32.50
2019-06-10T12:09:59.263Z,32.80
2019-06-10T12:12:33.717Z,33.00
2019-06-10T12:15:06.071Z,33.30
2019-06-10T12:17:47.077Z,33.60
2019-06-10T12:20:16.595Z,33.80
2019-06-10T12:22:49.512Z,34.10
2019-06-10T12:25:32.595Z,34.40
2019-06-10T12:28:01.233Z,34.70
2019-06-10T12:30:33.744Z,35.00
2019-06-10T12:33:05.593Z,35.30
2019-06-10T12:35:39.358Z,35.60
2019-06-10T12:38:13.854Z,35.70
2019-06-10T12:40:45.756Z,35.80
2019-06-10T12:43:18.125Z,35.80
2019-06-10T12:45:52.986Z,35.90
2019-06-10T12:48:24.550Z,35.90
2019-06-10T12:51:00.315Z,35.90
2019-06-10T12:53:32.808Z,35.80
2019-06-10T12:56:10.188Z,35.60
2019-06-10T12:58:39.221Z,35.30
2019-06-10T13:01:11.752Z,34.90
2019-06-10T13:03:45.823Z,34.60
2019-06-10T13:06:18.695Z,34.50
2019-06-10T13:08:53.507Z,34.40
2019-06-10T13:11:25.910Z,34.20
2019-06-10T13:13:58.195Z,34.20
2019-06-10T13:16:32.004Z,34.20
2019-06-10T13:19:07.478Z,34.10
2019-06-10T13:21:39.054Z,34.00
2019-06-10T13:24:13.182Z,34.00
2019-06-10T13:26:45.457Z,33.90
2019-06-10T13:29:17.902Z,33.80
2019-06-10T13:31:52.777Z,33.60
2019-06-10T13:34:24.257Z,33.50
2019-06-10T13:36:58.760Z,33.30
2019-06-10T13:39:32.539Z,32.90
2019-06-10T13:42:08.092Z,32.80
2019-06-10T13:44:39.095Z,32.60
2019-06-10T13:47:14.718Z,32.50
2019-06-10T13:49:45.702Z,32.40
2019-06-10T13:52:18.501Z,32.20
2019-06-10T13:54:52.644Z,32.10
2019-06-10T13:57:25.478Z,32.00
2019-06-10T13:59:59.345Z,31.90
2019-06-10T14:02:32.324Z,31.70
2019-06-10T14:05:10.320Z,31.70
2019-06-10T14:07:39.396Z,31.60
2019-06-10T14:10:17.969Z,31.50
2019-06-10T14:12:48.930Z,31.40
2019-06-10T14:15:22.640Z,31.30
2019-06-10T14:17:54.993Z,31.20
2019-06-10T14:20:27.404Z,31.10
2019-06-10T14:22:59.765Z,31.00
2019-06-10T14:25:33.901Z,30.80
2019-06-10T14:28:10.485Z,30.70
2019-06-10T14:30:43.031Z,30.60
2019-06-10T14:33:16.869Z,30.40
2019-06-10T14:35:49.202Z,30.30
2019-06-10T14:38:22.133Z,30.10
2019-06-10T14:40:54.630Z,30.00
2019-06-10T14:43:28.168Z,29.80
2019-06-10T14:46:04.711Z,29.70
2019-06-10T14:48:36.766Z,29.50
2019-06-10T14:51:08.880Z,29.30
2019-06-10T14:53:42.806Z,29.10
2019-06-10T14:56:18.684Z,29.00
2019-06-10T14:58:48.087Z,28.90
2019-06-10T15:01:25.538Z,28.80
2019-06-10T15:03:53.444Z,28.70
2019-06-10T15:06:25.169Z,28.60
2019-06-10T15:08:57.259Z,28.50
2019-06-10T15:11:32.169Z,28.50
2019-06-10T15:14:07.727Z,28.40
2019-06-10T15:16:43.695Z,28.30
2019-06-10T15:19:21.911Z,28.30
2019-06-10T15:21:49.357Z,28.20
2019-06-10T15:24:23.724Z,28.10
2019-06-10T15:27:08.756Z,28.10
2019-06-10T15:29:29.122Z,28.00
2019-06-10T15:32:10.323Z,27.90
2019-06-10T15:34:34.448Z,27.90
2019-06-10T15:37:06.190Z,27.70
2019-06-10T15:39:38.499Z,27.50
2019-06-10T15:42:11.558Z,27.20
2019-06-10T15:44:51.366Z,27.10
2019-06-10T15:47:21.007Z,26.80
2019-06-10T15:49:52.549Z,26.60
2019-06-10T15:52:25.193Z,26.40
2019-06-10T15:54:57.039Z,26.20
2019-06-10T15:57:39.333Z,26.10
2019-06-10T16:00:07.157Z,25.90
2019-06-10T16:02:37.351Z,25.90
2019-06-10T16:05:09.457Z,25.80
2019-06-10T16:07:43.220Z,25.70
2019-06-10T16:10:18.971Z,25.70
2019-06-10T16:12:48.713Z,25.70
2019-06-10T16:15:26.080Z,25.70
2019-06-10T16:17:55.025Z,25.70
2019-06-10T16:20:27.005Z,25.70
2019-06-10T16:22:58.684Z,25.70
2019-06-10T16:25:31.006Z,25.70
2019-06-10T16:28:02.841Z,25.60
2019-06-10T16:30:35.121Z,25.50
2019-06-10T16:33:06.879Z,25.50
2019-06-10T16:35:40.450Z,25.50
2019-06-10T16:38:12.821Z,25.50
2019-06-10T16:40:44.555Z,25.50
2019-06-10T16:43:17.690Z,25.40
2019-06-10T16:45:49.653Z,25.40
2019-06-10T16:48:21.925Z,25.40
2019-06-10T16:50:55.024Z,25.40
2019-06-10T16:53:30.546Z,25.30
2019-06-10T16:56:00.434Z,25.30
2019-06-10T16:58:33.424Z,25.20
2019-06-10T17:01:05.617Z,25.20
2019-06-10T17:03:37.342Z,25.10
2019-06-10T17:06:09.063Z,25.00
2019-06-10T17:08:42.623Z,25.00
2019-06-10T17:11:14.204Z,24.70
2019-06-10T17:13:45.930Z,24.90
2019-06-10T17:16:20.332Z,24.90
2019-06-10T17:18:52.633Z,24.80
2019-06-10T17:21:28.042Z,24.80
2019-06-10T17:23:57.835Z,24.80
2019-06-10T17:26:37.369Z,24.80
2019-06-10T17:29:04.559Z,24.80
2019-06-10T17:31:36.288Z,24.80
2019-06-10T17:34:08.817Z,24.80
2019-06-10T17:36:42.668Z,24.80
2019-06-10T17:39:14.776Z,24.80
2019-06-10T17:41:46.577Z,24.80
2019-06-10T17:44:19.499Z,24.80
2019-06-10T17:46:52.813Z,24.80
2019-06-10T17:49:25.861Z,24.80
2019-06-10T17:51:58.191Z,24.70
2019-06-10T17:54:30.354Z,24.70
2019-06-10T17:57:02.623Z,24.70
2019-06-10T17:59:35.480Z,24.60
2019-06-10T18:02:07.451Z,24.50
2019-06-10T18:04:39.302Z,24.50
2019-06-10T18:07:13.031Z,24.40
2019-06-10T18:09:44.809Z,24.40
2019-06-10T18:12:18.456Z,24.40
2019-06-10T18:14:52.503Z,24.40
2019-06-10T18:17:25.878Z,24.30
2019-06-10T18:19:59.496Z,24.30
2019-06-10T18:22:34.096Z,24.20
2019-06-10T18:25:08.583Z,24.20
2019-06-10T18:27:40.257Z,24.10
2019-06-10T18:30:14.403Z,24.10
2019-06-10T18:32:46.504Z,24.10
2019-06-10T18:35:18.365Z,24.00
2019-06-10T18:37:50.259Z,24.00
2019-06-10T18:40:22.340Z,23.90
2019-06-10T18:42:55.609Z,23.90
2019-06-10T18:45:34.919Z,23.80
2019-06-10T18:48:05.221Z,23.80
2019-06-10T18:50:39.585Z,23.70
2019-06-10T18:53:13.082Z,23.70
2019-06-10T18:55:44.794Z,23.70
2019-06-10T18:58:16.631Z,23.60
2019-06-10T19:01:00.692Z,23.60
2019-06-10T19:03:23.578Z,23.60
2019-06-10T19:05:57.506Z,23.50
2019-06-10T19:08:29.430Z,23.50
2019-06-10T19:11:02.424Z,23.40
2019-06-10T19:13:37.550Z,23.40
2019-06-10T19:16:09.856Z,23.40
2019-06-10T19:18:43.290Z,23.40
2019-06-10T19:21:16.995Z,23.40
2019-06-10T19:23:48.798Z,23.30
2019-06-10T19:26:22.335Z,23.30
2019-06-10T19:28:57.303Z,23.30
2019-06-10T19:31:27.870Z,23.20
2019-06-10T19:33:59.699Z,23.20
2019-06-10T19:36:31.564Z,23.20
2019-06-10T19:39:03.893Z,23.10
2019-06-10T19:41:38.023Z,23.00
2019-06-10T19:44:09.343Z,22.90
2019-06-10T19:46:43.006Z,22.80
2019-06-10T19:49:16.298Z,22.70
2019-06-10T19:51:48.047Z,22.60
2019-06-10T19:54:19.883Z,22.50
2019-06-10T19:56:52.389Z,22.40
2019-06-10T19:59:24.341Z,22.30
2019-06-10T20:01:57.252Z,22.20
2019-06-10T20:04:30.267Z,22.00
2019-06-10T20:07:02.445Z,22.00
2019-06-10T20:09:38.053Z,21.90
2019-06-10T20:12:12.387Z,21.60
2019-06-10T20:14:44.821Z,21.60
2019-06-10T20:17:16.996Z,21.60
2019-06-10T20:19:51.140Z,21.50
2019-06-10T20:22:22.959Z,21.40
2019-06-10T20:24:54.879Z,21.40
2019-06-10T20:27:28.106Z,21.30
2019-06-10T20:30:10.172Z,21.30
2019-06-10T20:32:34.758Z,21.20
2019-06-10T20:35:08.663Z,21.20
2019-06-10T20:37:42.249Z,21.20
2019-06-10T20:40:15.060Z,21.10
2019-06-10T20:42:46.945Z,21.10
2019-06-10T20:45:22.900Z,21.10
2019-06-10T20:47:56.088Z,21.10
2019-06-10T20:50:27.816Z,21.00
2019-06-10T20:53:13.800Z,21.00
2019-06-10T20:55:41.285Z,21.00
2019-06-10T20:58:08.599Z,21.00
2019-06-10T21:00:46.502Z,21.00
2019-06-10T21:03:14.184Z,20.90
2019-06-10T21:05:53.464Z,20.90
2019-06-10T21:08:26.990Z,20.90
2019-06-10T21:11:02.675Z,20.90
2019-06-10T21:13:33.447Z,20.90
2019-06-10T21:16:05.224Z,20.90
2019-06-10T21:18:36.965Z,20.90
2019-06-10T21:21:09.003Z,20.90
2019-06-10T21:23:43.495Z,20.80
2019-06-10T21:26:14.165Z,20.80
2019-06-10T21:28:51.312Z,20.80
2019-06-10T21:31:23.063Z,20.80
2019-06-10T21:33:56.301Z,20.70
2019-06-10T21:36:28.184Z,20.70
2019-06-10T21:39:02.835Z,20.60
2019-06-10T21:41:34.713Z,20.60
2019-06-10T21:44:06.514Z,20.60
2019-06-10T21:46:38.286Z,20.50
2019-06-10T21:49:12.690Z,20.50
2019-06-10T21:51:45.708Z,20.50
2019-06-10T21:54:16.905Z,20.40
2019-06-10T21:56:48.932Z,20.40
2019-06-10T21:59:20.719Z,20.40
2019-06-10T22:01:53.387Z,20.30
2019-06-10T22:04:25.089Z,20.30
2019-06-10T22:06:56.932Z,20.30
2019-06-10T22:09:28.681Z,20.30
2019-06-10T22:12:02.712Z,20.20
2019-06-10T22:14:33.949Z,20.20
2019-06-10T22:17:05.787Z,20.20
2019-06-10T22:19:37.583Z,20.10
2019-06-10T22:22:10.174Z,20.10
2019-06-10T22:24:42.395Z,20.10
2019-06-10T22:27:14.368Z,20.10
2019-06-10T22:29:47.052Z,20.00
2019-06-10T22:32:18.961Z,20.00
2019-06-10T22:34:53.898Z,19.40
2019-06-10T22:37:24.301Z,20.00
2019-06-10T22:39:57.839Z,19.90
2019-06-10T22:42:32.780Z,19.90
2019-06-10T22:45:04.820Z,19.90
2019-06-10T22:47:36.526Z,19.90
2019-06-10T22:50:09.756Z,19.90
2019-06-10T22:52:42.577Z,19.90
2019-06-10T22:55:14.531Z,19.90
2019-06-10T22:57:46.361Z,19.90
2019-06-10T23:00:18.824Z,19.80
2019-06-10T23:02:53.317Z,19.80
2019-06-10T23:05:23.903Z,19.80
2019-06-10T23:07:57.415Z,19.80
2019-06-10T23:10:33.681Z,19.90
2019-06-10T23:13:04.646Z,19.80
2019-06-10T23:15:36.390Z,19.80
2019-06-10T23:18:08.103Z,19.90
2019-06-10T23:20:39.835Z,19.80
2019-06-10T23:23:12.695Z,19.80
2019-06-10T23:25:44.720Z,19.80
2019-06-10T23:28:16.512Z,19.80
2019-06-10T23:30:48.240Z,19.80
2019-06-10T23:33:19.942Z,19.80
2019-06-10T23:35:54.525Z,19.80
2019-06-10T23:38:26.234Z,19.80
2019-06-10T23:40:58.839Z,19.80
2019-06-10T23:43:32.874Z,19.80
2019-06-10T23:46:04.471Z,19.80
2019-06-10T23:48:36.604Z,19.70
2019-06-10T23:51:08.407Z,19.70
2019-06-10T23:53:40.091Z,19.70
2019-06-10T23:56:12.819Z,19.70
2019-06-10T23:58:44.579Z,19.70
